Time;durP1;ratioP1;P1;durP2;ratioP2;P2;SDS_P1;SDS_P2;PMS_P1;PMS_P2;Temp;Humidity;BMP_temperature;BMP_pressure;BME280_temperature;BME280_humidity;BME280_pressure;Samples;Min_cycle;Max_cycle;Signal;HPM_P1;HPM_P2
2024/01/19 00:00:56;;;;;;;6.27;1.50;;;-0.30;99.90;;;;;;5035061;28;20230;-64
2024/01/19 00:03:23;;;;;;;2.97;1.60;;;-0.40;99.90;;;;;;5028125;28;20231;-64
2024/01/19 00:05:50;;;;;;;2.37;1.33;;;-0.40;99.90;;;;;;5031497;28;20291;-64
2024/01/19 00:08:17;;;;;;;1.90;1.47;;;-0.30;99.90;;;;;;5025603;28;20231;-64
2024/01/19 00:10:45;;;;;;;6.33;1.67;;;-0.30;99.90;;;;;;4999666;28;20396;-64
2024/01/19 00:13:12;;;;;;;4.27;1.43;;;-0.40;99.90;;;;;;5035450;28;20704;-64
2024/01/19 00:15:39;;;;;;;6.27;1.50;;;-0.30;99.90;;;;;;5029511;28;20634;-64
2024/01/19 00:18:06;;;;;;;2.30;1.43;;;-0.30;99.90;;;;;;5039252;28;20669;-64
2024/01/19 00:20:33;;;;;;;3.03;1.40;;;0.00;99.90;;;;;;5021826;28;20451;-64
2024/01/19 00:23:00;;;;;;;4.63;1.50;;;-0.30;99.90;;;;;;5029223;28;20228;-64
2024/01/19 00:25:27;;;;;;;5.10;1.77;;;-0.30;99.90;;;;;;5000248;28;20213;-64
2024/01/19 00:27:55;;;;;;;4.83;1.70;;;-0.30;99.90;;;;;;5039453;28;20287;-63
2024/01/19 00:30:22;;;;;;;7.53;2.00;;;-0.30;99.90;;;;;;5027785;28;20202;-64
2024/01/19 00:32:48;;;;;;;1.97;1.47;;;-0.30;99.90;;;;;;5035620;28;20377;-64
2024/01/19 00:35:15;;;;;;;2.20;1.30;;;0.00;99.90;;;;;;5035392;28;20204;-64
2024/01/19 00:37:42;;;;;;;11.93;1.77;;;-0.30;99.90;;;;;;5028825;28;20209;-63
2024/01/19 00:40:12;;;;;;;4.30;1.63;;;-0.30;99.90;;;;;;5034207;28;20206;-63
2024/01/19 00:42:40;;;;;;;6.07;2.30;;;-0.30;99.90;;;;;;5009382;28;20754;-64
2024/01/19 00:45:09;;;;;;;1.80;1.30;;;-0.30;99.90;;;;;;5027063;28;20385;-64
2024/01/19 00:47:37;;;;;;;3.53;1.40;;;-0.30;99.90;;;;;;5027619;28;20298;-63
2024/01/19 00:50:05;;;;;;;3.03;1.50;;;-0.30;99.90;;;;;;5042221;28;20982;-64
2024/01/19 00:52:32;;;;;;;2.57;1.40;;;-0.30;99.90;;;;;;5031903;28;20205;-64
2024/01/19 00:54:59;;;;;;;1.27;1.17;;;-0.30;99.90;;;;;;5029606;28;20999;-64
2024/01/19 00:57:25;;;;;;;9.33;1.30;;;-0.30;99.90;;;;;;5005802;28;20215;-64
2024/01/19 00:59:54;;;;;;;5.57;2.13;;;-0.30;99.90;;;;;;5024833;28;20202;-64
2024/01/19 01:02:27;;;;;;;2.90;1.30;;;-0.20;99.90;;;;;;5032826;28;20890;-64
2024/01/19 01:04:53;;;;;;;2.30;1.20;;;-0.30;99.90;;;;;;5036216;28;20316;-64
2024/01/19 01:07:20;;;;;;;3.70;1.53;;;-0.20;99.90;;;;;;5029706;28;20245;-64
2024/01/19 01:09:47;;;;;;;2.87;1.30;;;-0.30;99.90;;;;;;5030340;28;20202;-64
2024/01/19 01:12:14;;;;;;;3.77;1.30;;;-0.20;99.90;;;;;;5011781;28;20219;-63
2024/01/19 01:14:41;;;;;;;2.33;0.80;;;-0.10;99.90;;;;;;5040374;28;20203;-63
2024/01/19 01:17:08;;;;;;;1.63;0.97;;;-0.10;99.90;;;;;;5030864;28;20525;-63
2024/01/19 01:19:36;;;;;;;2.00;1.17;;;-0.10;99.90;;;;;;5041118;28;20210;-64
2024/01/19 01:22:05;;;;;;;2.07;1.40;;;-0.10;99.90;;;;;;5036422;28;20415;-64
2024/01/19 01:24:32;;;;;;;3.70;1.27;;;-0.30;99.90;;;;;;5030769;28;20207;-64
2024/01/19 01:26:58;;;;;;;2.30;1.20;;;-0.20;99.90;;;;;;5029088;28;20203;-64
2024/01/19 01:29:25;;;;;;;3.23;1.23;;;-0.30;99.90;;;;;;5006751;28;20214;-64
2024/01/19 01:31:52;;;;;;;4.03;1.50;;;-0.30;99.90;;;;;;5024631;28;21094;-64
2024/01/19 01:34:19;;;;;;;1.53;1.03;;;-0.30;99.90;;;;;;5044050;28;20203;-64
2024/01/19 01:36:47;;;;;;;8.90;1.30;;;-0.20;99.90;;;;;;5042515;28;20188;-64
2024/01/19 01:39:14;;;;;;;3.37;0.93;;;-0.20;99.90;;;;;;5032198;28;20262;-64
2024/01/19 01:41:44;;;;;;;3.80;0.83;;;-0.70;99.90;;;;;;5027386;28;20201;-64
2024/01/19 01:44:11;;;;;;;5.40;0.97;;;-0.70;99.90;;;;;;5007233;28;20381;-64
2024/01/19 01:46:37;;;;;;;1.50;1.07;;;0.00;99.90;;;;;;5034625;28;20230;-64
2024/01/19 01:49:05;;;;;;;3.43;1.37;;;-0.10;99.90;;;;;;5033069;28;20333;-64
2024/01/19 01:51:33;;;;;;;4.40;0.97;;;0.00;99.90;;;;;;5040300;28;21213;-63
2024/01/19 01:54:02;;;;;;;7.20;1.00;;;0.00;99.90;;;;;;5036476;28;20202;-64
2024/01/19 01:56:30;;;;;;;4.13;1.47;;;0.00;99.90;;;;;;5032199;28;20548;-64
2024/01/19 01:58:57;;;;;;;2.90;1.20;;;0.10;99.90;;;;;;4994764;28;26927;-63
2024/01/19 02:01:24;;;;;;;2.97;1.00;;;0.10;99.90;;;;;;5032178;28;20201;-64
2024/01/19 02:03:54;;;;;;;3.33;1.30;;;0.10;99.90;;;;;;5023419;28;20224;-64
2024/01/19 02:06:21;;;;;;;3.20;1.13;;;0.60;99.90;;;;;;5040259;28;20270;-64
2024/01/19 02:08:48;;;;;;;6.73;1.30;;;0.00;99.90;;;;;;5038239;28;20670;-64
2024/01/19 02:11:16;;;;;;;3.17;1.10;;;0.40;99.90;;;;;;5027425;28;20537;-64
2024/01/19 02:13:43;;;;;;;1.37;0.70;;;0.10;99.90;;;;;;5029326;28;20201;-64
2024/01/19 02:16:10;;;;;;;4.60;0.80;;;0.10;99.90;;;;;;5004916;28;20224;-64
2024/01/19 02:18:37;;;;;;;1.37;0.80;;;0.10;99.90;;;;;;5026030;28;20701;-64
2024/01/19 02:21:04;;;;;;;3.60;0.80;;;0.10;99.90;;;;;;5036332;28;20758;-64
2024/01/19 02:23:36;;;;;;;2.97;0.90;;;0.10;99.90;;;;;;5035492;28;20525;-64
2024/01/19 02:26:05;;;;;;;2.00;0.87;;;1.20;99.90;;;;;;5014273;28;20412;-64
2024/01/19 02:28:32;;;;;;;1.97;1.00;;;0.00;99.90;;;;;;5023084;28;20256;-64
2024/01/19 02:30:59;;;;;;;1.97;0.80;;;0.00;99.90;;;;;;5003220;28;20211;-64
2024/01/19 02:33:26;;;;;;;1.17;0.83;;;0.00;99.90;;;;;;5020511;28;20327;-64
2024/01/19 02:35:53;;;;;;;4.57;0.80;;;0.00;99.90;;;;;;5034278;28;20196;-64
2024/01/19 02:38:20;;;;;;;2.13;0.80;;;0.00;99.90;;;;;;5035996;28;20635;-63
2024/01/19 02:40:47;;;;;;;6.67;1.00;;;0.00;99.90;;;;;;5035516;28;20658;-64
2024/01/19 02:43:15;;;;;;;2.43;0.40;;;0.00;99.90;;;;;;5014076;28;20236;-64
2024/01/19 02:45:42;;;;;;;6.00;1.00;;;-0.10;99.90;;;;;;5003260;28;20207;-64
2024/01/19 02:48:09;;;;;;;1.17;0.80;;;-0.10;99.90;;;;;;5024509;28;20681;-64
2024/01/19 02:50:36;;;;;;;2.53;0.90;;;0.00;99.90;;;;;;5036336;28;20210;-64
2024/01/19 02:53:03;;;;;;;1.90;0.90;;;0.00;99.90;;;;;;5024186;28;20199;-64
2024/01/19 02:55:30;;;;;;;8.63;1.30;;;;;;;;;;5033949;28;20383;-64
2024/01/19 02:57:57;;;;;;;1.63;0.70;;;-0.10;99.90;;;;;;5023081;28;20215;-64
2024/01/19 03:00:25;;;;;;;1.73;1.00;;;0.00;99.90;;;;;;5022420;28;20370;-63
2024/01/19 03:02:52;;;;;;;3.57;0.97;;;0.40;99.90;;;;;;5000335;28;20261;-64
2024/01/19 03:05:19;;;;;;;2.90;0.70;;;0.10;99.90;;;;;;5025844;28;20297;-64
2024/01/19 03:07:46;;;;;;;3.97;1.13;;;0.00;99.90;;;;;;5039958;28;20602;-64
2024/01/19 03:10:13;;;;;;;5.73;1.33;;;-0.10;99.90;;;;;;5026297;28;20291;-64
2024/01/19 03:12:40;;;;;;;2.67;0.70;;;0.00;99.90;;;;;;5025501;28;20600;-64
2024/01/19 03:15:07;;;;;;;3.70;1.07;;;-1.20;99.90;;;;;;5026169;28;20207;-64
2024/01/19 03:17:35;;;;;;;3.17;1.20;;;0.00;99.90;;;;;;4988542;28;20220;-64
2024/01/19 03:20:02;;;;;;;1.20;0.90;;;0.00;99.90;;;;;;5024703;28;20293;-64
2024/01/19 03:22:29;;;;;;;3.10;1.00;;;0.00;99.90;;;;;;5023349;28;22960;-64
2024/01/19 03:24:56;;;;;;;0.90;0.53;;;0.00;99.90;;;;;;5025671;28;20225;-64
2024/01/19 03:27:23;;;;;;;1.17;0.90;;;0.00;99.90;;;;;;5033355;28;20496;-64
2024/01/19 03:29:50;;;;;;;3.80;1.30;;;0.00;99.90;;;;;;5024013;28;20204;-64
2024/01/19 03:32:16;;;;;;;1.40;0.77;;;0.00;99.90;;;;;;5005712;28;20413;-64
2024/01/19 03:34:45;;;;;;;1.97;0.90;;;0.10;99.90;;;;;;5028754;28;20221;-64
2024/01/19 03:37:12;;;;;;;5.67;1.40;;;-0.10;99.90;;;;;;5033170;28;20203;-64
2024/01/19 03:39:38;;;;;;;2.10;1.10;;;0.00;99.90;;;;;;5026770;28;20208;-64
2024/01/19 03:42:05;;;;;;;0.53;0.53;;;0.10;99.90;;;;;;5025763;28;20211;-64
2024/01/19 03:44:32;;;;;;;1.20;0.70;;;0.00;99.90;;;;;;5028380;28;20231;-63
2024/01/19 03:47:00;;;;;;;2.53;0.63;;;;;;;;;;5031557;28;20322;-64
2024/01/19 03:49:27;;;;;;;1.90;0.83;;;0.60;99.90;;;;;;5025835;28;20205;-64
2024/01/19 03:52:03;;;;;;;1.70;0.70;;;0.00;99.90;;;;;;5034214;28;20672;-63
2024/01/19 03:54:32;;;;;;;2.27;0.57;;;0.00;99.90;;;;;;5027874;28;20759;-63
2024/01/19 03:57:00;;;;;;;1.47;0.50;;;0.00;99.90;;;;;;5037767;28;20203;-64
2024/01/19 03:59:27;;;;;;;1.10;0.37;;;0.60;99.90;;;;;;5026503;28;20224;-64
2024/01/19 04:01:54;;;;;;;0.90;0.47;;;0.50;99.90;;;;;;5042588;28;20615;-64
2024/01/19 04:04:21;;;;;;;0.87;0.43;;;0.00;99.90;;;;;;5007499;28;20779;-63
2024/01/19 04:06:48;;;;;;;3.40;0.60;;;0.10;99.90;;;;;;5028997;28;20664;-64
2024/01/19 04:09:16;;;;;;;0.37;0.37;;;0.70;99.90;;;;;;5032868;28;20201;-63
2024/01/19 04:11:43;;;;;;;1.73;0.50;;;0.10;99.90;;;;;;5039118;28;20195;-63
2024/01/19 04:14:11;;;;;;;0.20;0.20;;;0.10;99.90;;;;;;5027121;28;20202;-64
2024/01/19 04:16:38;;;;;;;1.50;0.60;;;0.20;99.90;;;;;;5040186;28;20208;-64
2024/01/19 04:19:07;;;;;;;0.40;0.40;;;0.20;99.90;;;;;;5011315;28;20211;-64
2024/01/19 04:21:34;;;;;;;1.30;0.40;;;0.20;99.90;;;;;;5034068;28;20212;-64
2024/01/19 04:24:01;;;;;;;0.47;0.47;;;0.20;99.90;;;;;;5038810;28;20226;-64
2024/01/19 04:26:30;;;;;;;0.73;0.40;;;0.20;99.90;;;;;;5026946;28;20202;-63
2024/01/19 04:28:57;;;;;;;0.60;0.50;;;0.10;99.90;;;;;;5039733;28;20743;-64
2024/01/19 04:31:23;;;;;;;3.03;0.67;;;0.20;99.90;;;;;;5029046;28;20471;-64
2024/01/19 04:33:50;;;;;;;3.23;0.80;;;0.10;99.90;;;;;;5037400;28;20668;-64
2024/01/19 04:36:18;;;;;;;0.47;0.40;;;0.10;99.90;;;;;;5003903;28;20798;-64
2024/01/19 04:38:48;;;;;;;0.70;0.53;;;0.10;99.90;;;;;;5029986;28;20295;-64
2024/01/19 04:41:15;;;;;;;0.50;0.50;;;0.20;99.90;;;;;;5026952;28;20804;-64
2024/01/19 04:43:44;;;;;;;2.17;0.30;;;0.10;99.90;;;;;;5035416;28;20236;-64
2024/01/19 04:46:10;;;;;;;1.57;0.60;;;0.10;99.90;;;;;;5025639;28;20240;-64
2024/01/19 04:48:38;;;;;;;0.57;0.43;;;;;;;;;;5041965;28;20199;-64
2024/01/19 04:51:06;;;;;;;1.20;0.57;;;0.20;99.90;;;;;;5009374;28;20536;-64
2024/01/19 04:53:33;;;;;;;0.53;0.37;;;0.10;99.90;;;;;;5021694;28;20941;-64
2024/01/19 04:55:59;;;;;;;0.77;0.67;;;0.10;99.90;;;;;;5017427;28;20639;-64
2024/01/19 04:58:26;;;;;;;2.27;0.53;;;0.10;99.90;;;;;;5028883;28;20415;-64
2024/01/19 05:00:54;;;;;;;3.40;0.50;;;0.10;99.90;;;;;;5036997;28;20196;-64
2024/01/19 05:03:21;;;;;;;0.60;0.50;;;-0.70;99.90;;;;;;5024634;28;20324;-64
2024/01/19 05:05:48;;;;;;;0.43;0.43;;;0.10;99.90;;;;;;5035747;28;20877;-64
2024/01/19 05:08:14;;;;;;;0.50;0.50;;;-0.70;99.90;;;;;;4992983;28;20367;-64
2024/01/19 05:10:41;;;;;;;0.50;0.40;;;0.10;99.90;;;;;;5028396;28;20219;-64
2024/01/19 05:13:08;;;;;;;1.10;0.40;;;0.80;99.90;;;;;;5039462;28;20881;-64
2024/01/19 05:15:35;;;;;;;1.93;0.87;;;0.00;99.90;;;;;;5037381;28;20899;-64
2024/01/19 05:18:03;;;;;;;0.97;0.90;;;-0.10;99.90;;;;;;5027793;28;20206;-64
2024/01/19 05:20:31;;;;;;;3.90;0.60;;;0.00;99.90;;;;;;5037767;28;20855;-64
2024/01/19 05:22:57;;;;;;;2.47;0.60;;;0.50;99.90;;;;;;5005852;28;20293;-64
2024/01/19 05:25:24;;;;;;;3.50;0.90;;;0.00;99.90;;;;;;5026413;28;20231;-63
2024/01/19 05:27:53;;;;;;;2.37;1.07;;;0.60;99.90;;;;;;5029407;28;20203;-63
2024/01/19 05:30:20;;;;;;;0.70;0.70;;;-0.20;99.90;;;;;;5033994;28;20292;-63
2024/01/19 05:32:47;;;;;;;1.60;0.83;;;-0.10;99.90;;;;;;5030580;28;20206;-64
2024/01/19 05:35:15;;;;;;;5.83;1.03;;;-0.10;99.90;;;;;;5028694;28;20232;-63
2024/01/19 05:37:42;;;;;;;1.43;1.33;;;-0.10;99.90;;;;;;4997365;28;20207;-63
2024/01/19 05:40:09;;;;;;;3.07;0.70;;;0.00;99.90;;;;;;5025636;28;20296;-64
2024/01/19 05:42:36;;;;;;;1.83;0.93;;;-0.10;99.90;;;;;;5016168;28;20234;-64
2024/01/19 05:45:03;;;;;;;2.00;1.10;;;-0.10;99.90;;;;;;5026785;28;20737;-64
2024/01/19 05:47:30;;;;;;;0.77;0.77;;;0.10;99.90;;;;;;5027080;28;20882;-64
2024/01/19 05:49:57;;;;;;;5.07;1.53;;;;;;;;;;5031861;28;20206;-64
2024/01/19 05:52:26;;;;;;;1.60;0.80;;;0.00;99.90;;;;;;5030211;28;20406;-64
2024/01/19 05:54:52;;;;;;;5.03;0.90;;;0.00;99.90;;;;;;4996415;28;20683;-64
2024/01/19 05:57:19;;;;;;;2.53;0.93;;;0.20;99.90;;;;;;5019177;28;20203;-64
2024/01/19 05:59:46;;;;;;;1.60;1.20;;;-0.40;99.90;;;;;;5030911;28;20746;-64
2024/01/19 06:02:13;;;;;;;3.83;1.33;;;0.20;99.90;;;;;;5027158;28;20906;-64
2024/01/19 06:04:41;;;;;;;2.47;1.33;;;0.30;99.90;;;;;;5018188;28;20723;-64
2024/01/19 06:07:08;;;;;;;3.47;1.30;;;0.30;99.90;;;;;;5020710;28;20258;-64
2024/01/19 06:09:36;;;;;;;1.93;0.77;;;0.10;99.90;;;;;;4993847;28;20416;-64
2024/01/19 06:12:03;;;;;;;2.33;1.00;;;0.20;99.90;;;;;;5034688;28;20216;-64
2024/01/19 06:14:31;;;;;;;4.77;1.00;;;0.10;99.90;;;;;;5026144;28;20458;-64
2024/01/19 06:16:57;;;;;;;1.00;0.90;;;0.00;99.90;;;;;;5039536;28;20227;-64
2024/01/19 06:19:24;;;;;;;1.60;0.80;;;0.30;99.90;;;;;;5035457;28;20323;-64
2024/01/19 06:21:51;;;;;;;5.10;1.47;;;0.20;99.90;;;;;;5032000;28;20226;-64
2024/01/19 06:24:18;;;;;;;2.40;1.10;;;0.60;99.90;;;;;;5022436;28;20229;-64
2024/01/19 06:26:48;;;;;;;1.37;1.10;;;0.50;99.90;;;;;;5026538;28;20625;-64
2024/01/19 06:29:15;;;;;;;1.40;0.97;;;-3.30;99.90;;;;;;5018910;28;20221;-64
2024/01/19 06:31:45;;;;;;;3.03;1.27;;;0.30;99.90;;;;;;5031445;28;20927;-64
2024/01/19 06:34:12;;;;;;;2.57;1.07;;;0.20;99.90;;;;;;5034540;28;20739;-64
2024/01/19 06:36:38;;;;;;;1.27;0.80;;;0.10;99.90;;;;;;5036147;28;20226;-64
2024/01/19 06:39:07;;;;;;;1.47;0.93;;;0.00;99.90;;;;;;5036170;28;20202;-64
2024/01/19 06:41:34;;;;;;;2.63;0.93;;;-0.10;99.90;;;;;;4990191;28;20323;-63
2024/01/19 06:44:02;;;;;;;0.80;0.80;;;-0.20;99.90;;;;;;5030815;28;20220;-64
2024/01/19 06:46:29;;;;;;;4.87;0.90;;;-0.10;99.90;;;;;;5024238;28;20233;-64
2024/01/19 06:48:56;;;;;;;1.77;1.10;;;-0.20;99.90;;;;;;5043631;28;20541;-63
2024/01/19 06:51:24;;;;;;;2.83;0.90;;;-0.20;99.90;;;;;;5024898;28;20267;-63
2024/01/19 06:53:52;;;;;;;4.57;1.07;;;-0.20;99.90;;;;;;5042359;28;20256;-64
2024/01/19 06:56:19;;;;;;;1.10;0.90;;;;;;;;;;5003266;28;20760;-64
2024/01/19 06:58:46;;;;;;;3.10;1.30;;;0.40;99.90;;;;;;5031439;28;20715;-63
2024/01/19 07:01:14;;;;;;;2.77;1.73;;;-0.60;99.90;;;;;;5019426;28;20230;-64
2024/01/19 07:03:41;;;;;;;2.30;1.60;;;-0.30;99.90;;;;;;5035060;28;20208;-63
2024/01/19 07:06:08;;;;;;;10.37;2.93;;;-0.20;99.90;;;;;;5027292;28;20243;-64
2024/01/19 07:08:33;;;;;;;7.67;2.30;;;-0.20;99.90;;;;;;5032917;28;20508;-64
2024/01/19 07:11:00;;;;;;;5.00;1.40;;;-0.20;99.90;;;;;;5042824;28;20197;-64
2024/01/19 07:13:27;;;;;;;3.87;1.37;;;0.10;99.90;;;;;;5002566;28;20207;-64
2024/01/19 07:15:54;;;;;;;3.23;1.63;;;-0.20;99.90;;;;;;5031491;28;21533;-64
2024/01/19 07:18:22;;;;;;;3.53;1.77;;;0.50;99.90;;;;;;5024654;28;20204;-63
2024/01/19 07:20:49;;;;;;;6.17;1.60;;;-0.10;99.90;;;;;;5032797;28;20203;-64
2024/01/19 07:23:15;;;;;;;2.07;1.27;;;-0.20;99.90;;;;;;5040168;28;20711;-64
2024/01/19 07:25:42;;;;;;;2.53;1.67;;;-0.20;99.90;;;;;;5032372;28;20241;-64
2024/01/19 07:28:09;;;;;;;2.90;1.50;;;;;;;;;;4984584;28;20905;-64
2024/01/19 07:30:39;;;;;;;2.00;1.20;;;-0.30;99.90;;;;;;5028196;28;20527;-63
2024/01/19 07:33:06;;;;;;;1.23;0.83;;;-0.20;99.90;;;;;;5010012;28;20579;-64
2024/01/19 07:35:34;;;;;;;4.57;1.77;;;-0.20;99.90;;;;;;5040652;28;20208;-64
2024/01/19 07:38:01;;;;;;;4.90;2.40;;;-0.20;99.90;;;;;;5020154;28;21511;-64
2024/01/19 07:40:27;;;;;;;4.03;1.53;;;-0.20;99.90;;;;;;5025978;28;20218;-64
2024/01/19 07:42:54;;;;;;;7.17;1.23;;;-0.30;99.90;;;;;;5027868;28;20618;-64
2024/01/19 07:45:21;;;;;;;2.20;1.20;;;-0.70;99.90;;;;;;4991043;28;20298;-64
2024/01/19 07:47:48;;;;;;;4.53;1.13;;;0.00;99.90;;;;;;5003348;28;20607;-63
2024/01/19 07:50:14;;;;;;;1.40;1.00;;;0.00;99.90;;;;;;5016072;28;20525;-63
2024/01/19 07:52:43;;;;;;;4.13;0.90;;;0.00;99.90;;;;;;5009242;28;20230;-63
2024/01/19 07:55:09;;;;;;;1.13;1.00;;;0.00;99.90;;;;;;5026591;28;20594;-63
2024/01/19 07:57:36;;;;;;;5.50;1.80;;;0.10;99.90;;;;;;5029611;28;20221;-64
2024/01/19 08:00:03;;;;;;;4.27;1.07;;;0.10;99.90;;;;;;4993743;28;20284;-64
2024/01/19 08:02:30;;;;;;;1.10;0.90;;;0.10;99.90;;;;;;5021425;28;20372;-63
2024/01/19 08:04:56;;;;;;;1.00;0.80;;;0.20;99.90;;;;;;5022335;28;20224;-63
2024/01/19 08:07:24;;;;;;;4.20;0.90;;;0.30;99.90;;;;;;5014824;28;20618;-63
2024/01/19 08:09:52;;;;;;;2.43;1.33;;;0.40;99.90;;;;;;5031896;28;20319;-64
2024/01/19 08:12:19;;;;;;;4.07;1.33;;;0.30;99.90;;;;;;5030842;28;21106;-64
2024/01/19 08:14:46;;;;;;;2.40;1.30;;;0.20;99.90;;;;;;5009131;28;20225;-63
2024/01/19 08:17:13;;;;;;;1.87;1.17;;;0.10;99.90;;;;;;5034910;28;20216;-64
2024/01/19 08:19:40;;;;;;;1.73;1.13;;;-1.10;99.90;;;;;;5032786;28;20200;-63
2024/01/19 08:22:07;;;;;;;2.70;1.00;;;0.10;99.90;;;;;;5036514;28;20193;-63
2024/01/19 08:24:37;;;;;;;3.40;0.93;;;0.10;99.90;;;;;;5031129;28;20564;-64
2024/01/19 08:27:05;;;;;;;4.10;0.97;;;0.00;99.90;;;;;;5039237;28;20202;-63
2024/01/19 08:29:33;;;;;;;2.97;1.10;;;-0.10;99.90;;;;;;5008562;28;20208;-63
2024/01/19 08:32:00;;;;;;;1.87;1.03;;;0.00;99.90;;;;;;5041043;28;20208;-63
2024/01/19 08:34:27;;;;;;;2.87;0.90;;;-0.10;99.90;;;;;;5029167;28;20207;-63
2024/01/19 08:36:54;;;;;;;3.57;1.23;;;0.00;99.90;;;;;;5043731;28;20197;-63
2024/01/19 08:39:21;;;;;;;5.33;0.97;;;-0.10;99.90;;;;;;5032996;28;20760;-63
2024/01/19 08:41:48;;;;;;;1.07;0.80;;;-0.10;99.90;;;;;;5036887;28;20191;-63
2024/01/19 08:44:16;;;;;;;3.23;0.80;;;0.20;99.90;;;;;;5039227;28;20426;-63
2024/01/19 08:46:44;;;;;;;5.63;1.23;;;-0.20;99.90;;;;;;4998929;28;20268;-63
2024/01/19 08:49:11;;;;;;;3.80;0.90;;;-0.10;99.90;;;;;;5032930;28;21324;-64
2024/01/19 08:51:38;;;;;;;2.87;1.20;;;-0.10;99.90;;;;;;5032357;28;20199;-63
2024/01/19 08:54:05;;;;;;;2.10;0.77;;;0.10;99.90;;;;;;5039992;28;20210;-64
2024/01/19 08:56:32;;;;;;;3.77;1.10;;;-0.10;99.90;;;;;;5030287;28;20616;-63
2024/01/19 08:58:59;;;;;;;9.27;4.10;;;0.00;99.90;;;;;;5040038;28;20217;-63
2024/01/19 09:01:27;;;;;;;4.57;1.70;;;0.00;99.90;;;;;;5004985;28;20307;-63
2024/01/19 09:03:54;;;;;;;3.40;1.30;;;-0.10;99.90;;;;;;5030766;28;20360;-63
2024/01/19 09:06:21;;;;;;;2.03;1.17;;;0.10;99.90;;;;;;5023829;28;20227;-63
2024/01/19 09:08:48;;;;;;;4.83;1.43;;;0.00;99.90;;;;;;5031197;28;20198;-63
2024/01/19 09:11:15;;;;;;;5.63;2.00;;;0.00;99.90;;;;;;5032907;28;20508;-64
2024/01/19 09:13:41;;;;;;;2.90;1.13;;;0.40;99.90;;;;;;5043699;28;20215;-63
2024/01/19 09:16:08;;;;;;;7.80;1.47;;;0.00;99.90;;;;;;5042598;28;20202;-64
2024/01/19 09:18:38;;;;;;;5.60;1.30;;;0.00;99.90;;;;;;5011138;28;20360;-63
2024/01/19 09:21:05;;;;;;;1.27;0.90;;;0.10;99.90;;;;;;5028037;28;20204;-64
2024/01/19 09:23:32;;;;;;;3.13;0.90;;;0.10;99.90;;;;;;5033457;28;20624;-64
2024/01/19 09:25:59;;;;;;;4.13;0.97;;;0.40;99.90;;;;;;5040091;28;20233;-63
2024/01/19 09:28:26;;;;;;;2.93;2.10;;;0.10;99.90;;;;;;5033649;28;20206;-65
2024/01/19 09:30:52;;;;;;;6.17;2.07;;;0.10;99.90;;;;;;5039370;28;20289;-63
2024/01/19 09:33:19;;;;;;;3.37;1.67;;;0.60;99.90;;;;;;5006874;28;20211;-64
2024/01/19 09:35:47;;;;;;;2.97;1.17;;;0.10;99.90;;;;;;5041827;28;20204;-64
2024/01/19 09:38:15;;;;;;;1.63;1.00;;;-0.60;99.90;;;;;;5016990;28;20623;-64
2024/01/19 09:40:44;;;;;;;4.73;1.20;;;0.30;99.90;;;;;;5044650;28;20195;-64
2024/01/19 09:43:12;;;;;;;4.10;1.67;;;0.30;99.90;;;;;;5033303;28;20333;-63
2024/01/19 09:45:41;;;;;;;3.37;1.30;;;0.40;99.90;;;;;;5040033;28;20827;-63
2024/01/19 09:48:21;;;;;;;3.40;1.40;;;0.40;99.90;;;;;;5043190;28;20196;-63
2024/01/19 09:50:52;;;;;;;5.53;1.43;;;0.50;99.90;;;;;;5007511;28;20266;-63
2024/01/19 09:53:23;;;;;;;5.80;1.50;;;0.60;99.90;;;;;;5019981;28;20416;-64
2024/01/19 09:55:49;;;;;;;2.23;1.10;;;0.60;99.90;;;;;;5033461;28;20869;-64
2024/01/19 09:58:17;;;;;;;7.30;1.67;;;0.70;99.90;;;;;;5028246;28;20303;-64
2024/01/19 10:00:47;;;;;;;3.07;1.20;;;0.70;99.90;;;;;;5040310;28;20932;-63
2024/01/19 10:03:17;;;;;;;2.70;0.97;;;0.80;99.90;;;;;;5036194;28;20283;-64
2024/01/19 10:05:44;;;;;;;4.60;1.73;;;0.70;99.90;;;;;;5010253;28;20229;-64
2024/01/19 10:08:14;;;;;;;7.03;1.97;;;0.80;99.90;;;;;;5021422;28;20210;-64
2024/01/19 10:10:42;;;;;;;4.77;1.33;;;0.80;99.90;;;;;;5026777;28;20208;-63
2024/01/19 10:13:09;;;;;;;4.67;1.57;;;0.90;99.90;;;;;;5031918;28;20198;-64
2024/01/19 10:15:36;;;;;;;2.97;1.43;;;0.90;99.90;;;;;;5046471;28;20525;-64
2024/01/19 10:18:05;;;;;;;3.73;0.90;;;0.90;99.90;;;;;;5034822;28;20223;-63
2024/01/19 10:20:33;;;;;;;1.43;1.13;;;1.00;99.90;;;;;;5016340;28;20283;-64
2024/01/19 10:23:21;;;;;;;3.37;1.73;;;1.10;99.90;;;;;;5022304;28;20552;-64
2024/01/19 10:25:47;;;;;;;5.53;1.43;;;1.20;99.90;;;;;;5008748;28;20221;-63
2024/01/19 10:28:30;;;;;;;11.27;1.73;;;1.20;99.90;;;;;;5032797;28;20215;-63
2024/01/19 10:31:21;;;;;;;1.60;0.93;;;1.30;99.90;;;;;;5036054;28;20207;-64
2024/01/19 10:33:56;;;;;;;4.43;1.50;;;1.40;99.90;;;;;;5041448;28;20200;-64
2024/01/19 10:36:23;;;;;;;5.40;1.50;;;1.70;99.90;;;;;;5009686;28;20714;-64
2024/01/19 10:38:51;;;;;;;7.90;1.60;;;1.40;99.90;;;;;;5015243;28;20957;-64
2024/01/19 10:41:25;;;;;;;2.23;0.80;;;1.40;99.90;;;;;;5032911;28;20627;-63
2024/01/19 10:43:52;;;;;;;5.70;1.20;;;1.40;99.90;;;;;;5028480;28;20641;-64
2024/01/19 10:46:23;;;;;;;7.23;1.43;;;1.50;99.90;;;;;;5029738;28;20230;-64
2024/01/19 10:48:50;;;;;;;4.37;1.30;;;1.50;99.90;;;;;;5011894;28;20686;-64
2024/01/19 10:51:19;;;;;;;2.47;1.20;;;1.60;99.90;;;;;;4993038;28;20220;-64
2024/01/19 10:53:47;;;;;;;2.30;1.47;;;1.70;99.90;;;;;;5011876;28;20207;-64
2024/01/19 10:56:20;;;;;;;4.17;1.30;;;1.70;99.90;;;;;;5023951;28;20578;-64
2024/01/19 10:58:47;;;;;;;3.83;1.60;;;1.70;99.90;;;;;;5024550;28;20200;-64
2024/01/19 11:01:15;;;;;;;3.57;1.20;;;1.70;99.90;;;;;;5037203;28;20944;-64
2024/01/19 11:03:43;;;;;;;1.40;1.23;;;1.70;99.90;;;;;;5030592;28;20617;-64
2024/01/19 11:06:10;;;;;;;10.57;2.03;;;1.70;99.90;;;;;;5038680;28;20313;-64
2024/01/19 11:08:37;;;;;;;5.37;1.60;;;1.70;99.90;;;;;;4989380;28;20735;-64
2024/01/19 11:11:06;;;;;;;7.17;1.20;;;1.60;99.90;;;;;;5027132;28;20397;-64
2024/01/19 11:13:40;;;;;;;4.30;2.10;;;2.80;99.90;;;;;;5027201;28;20699;-64
2024/01/19 11:16:12;;;;;;;4.03;1.47;;;1.70;99.90;;;;;;5038420;28;20651;-64
2024/01/19 11:18:39;;;;;;;9.93;1.67;;;1.80;99.90;;;;;;5030416;28;20232;-64
2024/01/19 11:21:06;;;;;;;3.03;1.13;;;1.90;99.90;;;;;;5035548;28;20811;-64
2024/01/19 11:23:35;;;;;;;4.00;1.20;;;1.90;99.90;;;;;;5001320;28;20231;-64
2024/01/19 11:26:13;;;;;;;7.57;1.23;;;1.90;99.90;;;;;;5025242;28;20531;-64
2024/01/19 11:28:52;;;;;;;7.77;1.77;;;1.90;99.90;;;;;;5021906;28;22024;-64
2024/01/19 11:31:22;;;;;;;5.30;1.50;;;1.90;99.90;;;;;;5027453;28;20210;-65
2024/01/19 11:33:49;;;;;;;1.70;0.80;;;1.90;99.90;;;;;;5035411;28;20581;-64
2024/01/19 11:36:46;;;;;;;10.27;1.10;;;1.90;99.90;;;;;;5040109;28;20193;-64
2024/01/19 11:39:41;;;;;;;2.43;1.37;;;1.90;99.90;;;;;;5003080;28;20216;-64
2024/01/19 11:42:09;;;;;;;5.27;1.23;;;1.90;99.90;;;;;;5037459;28;20799;-64
2024/01/19 11:44:47;;;;;;;3.87;1.30;;;1.90;99.90;;;;;;5026403;28;20199;-64
2024/01/19 11:47:39;;;;;;;5.50;1.47;;;1.90;99.90;;;;;;5040001;28;20266;-64
2024/01/19 11:50:06;;;;;;;2.17;1.20;;;2.00;99.90;;;;;;5030287;28;20367;-64
2024/01/19 11:52:41;;;;;;;2.93;1.20;;;2.00;99.90;;;;;;5029431;28;20201;-65
2024/01/19 11:55:37;;;;;;;4.87;1.50;;;2.00;99.90;;;;;;5032088;28;20232;-64
2024/01/19 11:58:26;;;;;;;3.50;1.43;;;2.00;99.90;;;;;;5032554;28;20387;-64
2024/01/19 12:00:55;;;;;;;12.13;1.50;;;2.10;99.90;;;;;;5009188;28;20394;-65
2024/01/19 12:03:22;;;;;;;10.83;4.40;;;2.10;99.90;;;;;;5039568;28;20224;-64
2024/01/19 12:05:50;;;;;;;4.43;2.33;;;2.20;99.90;;;;;;5026188;28;20203;-64
2024/01/19 12:08:17;;;;;;;7.60;2.27;;;2.40;99.90;;;;;;5034771;28;20211;-65
2024/01/19 12:10:44;;;;;;;4.60;1.40;;;2.20;99.90;;;;;;4985352;28;20211;-65
2024/01/19 12:13:12;;;;;;;5.20;1.80;;;2.20;99.90;;;;;;5025603;28;20204;-64
2024/01/19 12:15:40;;;;;;;5.43;1.43;;;2.30;99.90;;;;;;5020823;28;20750;-65
2024/01/19 12:18:09;;;;;;;9.33;2.30;;;2.30;99.90;;;;;;5024972;28;20812;-64
2024/01/19 12:20:36;;;;;;;3.63;1.23;;;2.40;99.90;;;;;;5037987;28;20201;-65
2024/01/19 12:23:02;;;;;;;2.93;1.57;;;2.40;99.90;;;;;;5029135;28;20226;-65
2024/01/19 12:25:29;;;;;;;5.43;1.33;;;2.40;99.90;;;;;;5000123;28;20299;-65
2024/01/19 12:28:04;;;;;;;3.10;1.27;;;3.50;99.90;;;;;;5006533;28;20233;-64
2024/01/19 12:30:32;;;;;;;5.17;1.70;;;2.40;99.90;;;;;;5023551;28;20907;-64
2024/01/19 12:33:00;;;;;;;2.90;1.73;;;2.40;99.90;;;;;;5019768;28;20739;-65
2024/01/19 12:35:28;;;;;;;5.67;1.30;;;2.40;99.90;;;;;;5039801;28;20273;-65
2024/01/19 12:37:55;;;;;;;5.37;1.70;;;2.40;99.90;;;;;;5034295;28;20205;-65
2024/01/19 12:40:25;;;;;;;3.03;1.30;;;2.30;99.90;;;;;;5037100;28;20222;-65
2024/01/19 12:42:52;;;;;;;2.97;1.07;;;2.40;99.90;;;;;;4985110;28;20214;-65
2024/01/19 12:45:20;;;;;;;9.60;1.20;;;2.40;99.90;;;;;;5040357;28;20216;-65
2024/01/19 12:47:49;;;;;;;3.17;1.47;;;2.40;99.90;;;;;;5010325;28;20228;-65
2024/01/19 12:50:17;;;;;;;7.27;2.00;;;2.00;99.90;;;;;;5040903;28;20307;-65
2024/01/19 12:52:45;;;;;;;3.57;0.97;;;2.30;99.90;;;;;;5034985;28;20204;-65
2024/01/19 12:55:13;;;;;;;10.63;1.77;;;2.40;99.90;;;;;;5030664;28;20848;-66
2024/01/19 12:57:40;;;;;;;5.77;1.33;;;2.50;99.90;;;;;;5006136;28;20201;-66
2024/01/19 13:00:10;;;;;;;5.83;1.60;;;2.50;99.90;;;;;;5014468;28;20738;-66